Cambrils, Spain
Current Conditions -  °F | °C
As of 10:00 PM on Wednesday 28 Jan 2015 (Local Time) from LERS Reporting Station
Few Clouds Few Clouds  
Wind Chill: 45°   Ceiling: Unl
Heat Index: 45°   Visibility: 6mi
Dew Point: 37°   Wind: 3mph
Humidity: 76%   Direction: 290°WNW
Pressure: 30.09"   Gusts: NA
Location:  41.07°N, 1.05°E
Report Text: LERS 282100Z 29003KT 9999 FEW030 07/03 Q1019
Loading
Personal Weather Stations






























Interactive Weather Map New forecast layout! Learn more

10-Day Weather Forecast

Advertisements
Track Severe Weather on mobile